Time;durP1;ratioP1;P1;durP2;ratioP2;P2;SDS_P1;SDS_P2;PMS_P1;PMS_P2;Temp;Humidity;BMP_temperature;BMP_pressure;BME280_temperature;BME280_humidity;BME280_pressure;Samples;Min_cycle;Max_cycle;Signal;HPM_P1;HPM_P2
2022/03/07 00:00:19;;;;;;;12.27;10.98;;;1.90;19.30;;;1.75;59.25;102096.13;4979870;28;20869;-69
2022/03/07 00:02:50;;;;;;;12.73;10.00;;;1.90;19.20;;;1.89;58.98;102101.25;4979869;28;20249;-70
2022/03/07 00:05:21;;;;;;;12.40;10.15;;;1.90;19.20;;;1.80;59.11;102096.63;4979927;28;20241;-69
2022/03/07 00:07:53;;;;;;;15.55;9.77;;;2.00;19.00;;;1.71;59.41;102097.31;4979687;28;20175;-69
2022/03/07 00:10:23;;;;;;;12.30;10.80;;;1.90;19.30;;;1.73;59.60;102098.06;4980159;28;20187;-69
2022/03/07 00:15:58;;;;;;;15.23;10.02;;;1.90;19.80;;;1.82;59.27;102093.84;4925183;29;20206;-66
2022/03/07 00:18:27;;;;;;;10.18;8.40;;;1.90;19.80;;;1.67;59.67;102101.19;4940226;29;20511;-66
2022/03/07 00:20:56;;;;;;;10.05;8.20;;;1.90;19.80;;;1.62;60.06;102095.34;4939304;29;20220;-67
2022/03/07 00:23:27;;;;;;;12.65;8.15;;;1.80;20.10;;;1.65;60.06;102093.28;4939096;29;20213;-66
2022/03/07 00:25:56;;;;;;;9.57;7.70;;;1.80;20.40;;;1.67;60.27;102093.19;4939271;29;20180;-67
2022/03/07 00:28:25;;;;;;;9.40;6.80;;;1.80;20.90;;;1.59;60.16;102087.59;4939046;29;20173;-66
2022/03/07 00:30:54;;;;;;;8.32;7.32;;;1.80;20.90;;;1.56;60.50;102093.13;4939398;29;20192;-67
2022/03/07 00:33:23;;;;;;;7.85;7.13;;;1.70;21.30;;;1.53;60.59;102094.22;4938948;29;20208;-66
2022/03/07 00:35:52;;;;;;;9.40;7.85;;;1.70;21.80;;;1.55;60.68;102096.78;4937645;29;20196;-66
2022/03/07 00:38:21;;;;;;;9.57;6.93;;;1.70;21.80;;;1.44;60.74;102100.25;4939002;29;20588;-67
2022/03/07 00:40:51;;;;;;;8.23;7.40;;;1.60;21.60;;;1.39;60.52;102082.88;4921686;29;20185;-67
2022/03/07 00:43:22;;;;;;;15.88;8.30;;;1.60;21.60;;;1.34;61.12;102093.91;4922007;29;20220;-67
2022/03/07 00:45:51;;;;;;;9.45;7.70;;;1.50;22.00;;;1.24;61.43;102101.72;4939468;29;20169;-67
2022/03/07 00:48:22;;;;;;;10.80;6.93;;;1.50;22.50;;;1.15;61.78;102105.06;4938821;29;20197;-67
2022/03/07 00:50:52;;;;;;;8.88;7.90;;;1.40;23.00;;;1.10;61.85;102101.03;4938553;29;20526;-67
2022/03/07 00:53:24;;;;;;;9.23;7.85;;;1.30;23.40;;;1.02;61.91;102103.38;4938581;29;20207;-67
2022/03/07 00:55:56;;;;;;;10.93;9.73;;;1.30;23.30;;;0.93;62.12;102099.56;4937553;29;20193;-67
2022/03/07 00:58:31;;;;;;;12.07;9.93;;;1.20;24.00;;;0.92;62.40;102097.88;4921597;29;20199;-66
2022/03/07 01:01:00;;;;;;;14.55;8.70;;;1.20;24.60;;;0.83;62.23;102094.06;4921343;29;20201;-67
2022/03/07 01:03:30;;;;;;;11.73;7.35;;;1.10;24.90;;;0.91;62.20;102092.66;4938149;29;20247;-67
2022/03/07 01:05:59;;;;;;;13.75;7.90;;;1.10;25.30;;;0.80;62.50;102093.44;4938841;29;20654;-67
2022/03/07 01:08:28;;;;;;;10.63;7.53;;;1.00;25.80;;;0.86;62.82;102095.66;4938611;29;20189;-66
2022/03/07 01:10:58;;;;;;;11.05;8.13;;;1.00;26.20;;;0.79;62.86;102102.38;4921086;29;20217;-67
2022/03/07 01:13:27;;;;;;;9.63;7.50;;;1.00;26.70;;;0.79;62.60;102097.06;4937823;29;20600;-67
2022/03/07 01:15:56;;;;;;;10.10;8.43;;;1.00;27.50;;;0.69;63.36;102098.66;4937890;29;20564;-66
2022/03/07 01:18:25;;;;;;;10.60;8.15;;;0.90;28.20;;;0.69;63.17;102090.66;4937513;29;20174;-67
2022/03/07 01:20:54;;;;;;;10.05;7.80;;;0.90;28.70;;;0.67;63.11;102095.28;4937606;29;20193;-67
2022/03/07 01:23:23;;;;;;;14.63;9.63;;;0.90;29.20;;;0.64;63.65;102095.47;4937582;29;20209;-67
2022/03/07 01:25:52;;;;;;;12.57;8.68;;;0.80;29.70;;;0.67;63.27;102100.59;4920661;29;20284;-67
2022/03/07 01:28:23;;;;;;;8.98;7.80;;;0.80;30.30;;;0.66;63.69;102096.22;4920995;29;20602;-66
2022/03/07 01:30:52;;;;;;;12.18;9.00;;;0.80;31.30;;;0.58;64.02;102091.44;4937849;29;20568;-67
2022/03/07 01:33:23;;;;;;;11.45;8.55;;;0.80;31.90;;;0.50;64.26;102095.59;4920971;29;20315;-67
2022/03/07 01:35:52;;;;;;;12.50;8.13;;;0.70;32.60;;;0.47;63.90;102093.16;4937538;29;20633;-67
2022/03/07 01:38:21;;;;;;;10.82;7.85;;;0.70;33.30;;;0.52;64.08;102088.38;4937949;29;20197;-67
2022/03/07 01:40:50;;;;;;;8.70;7.80;;;0.70;35.20;;;0.66;63.55;102089.09;4920587;29;20189;-67
2022/03/07 01:43:20;;;;;;;12.27;9.38;;;0.70;34.60;;;0.62;63.74;102089.41;4940814;29;20213;-67
2022/03/07 01:45:50;;;;;;;8.95;8.05;;;0.80;34.70;;;0.68;63.57;102088.97;4924124;29;20193;-68
2022/03/07 01:48:19;;;;;;;11.73;9.48;;;0.80;35.10;;;0.71;63.86;102080.78;4940418;29;20173;-68
2022/03/07 01:50:49;;;;;;;9.95;8.05;;;0.80;34.70;;;0.57;64.04;102089.75;4937244;29;20683;-66
2022/03/07 01:53:22;;;;;;;8.68;7.78;;;0.80;34.70;;;0.56;64.12;102079.19;4919501;29;20275;-67
2022/03/07 01:55:51;;;;;;;9.85;7.07;;;0.70;35.20;;;0.66;64.07;102080.25;4919691;29;20208;-67
2022/03/07 01:58:20;;;;;;;12.70;8.57;;;0.80;36.50;;;0.71;63.56;102078.97;4919663;29;20247;-67
2022/03/07 02:00:51;;;;;;;11.13;8.70;;;0.80;36.10;;;0.70;63.80;102077.25;4919067;29;20189;-67
2022/03/07 02:03:22;;;;;;;8.95;7.43;;;0.80;35.80;;;0.75;63.80;102076.91;4919346;29;20220;-67
2022/03/07 02:05:54;;;;;;;7.50;6.82;;;0.90;36.30;;;0.90;62.96;102081.16;4936428;29;20192;-68
2022/03/07 02:08:27;;;;;;;11.05;7.47;;;1.00;35.10;;;0.87;62.76;102074.22;4919425;29;20620;-68
2022/03/07 02:11:04;;;;;;;9.18;7.85;;;1.00;33.90;;;0.84;63.26;102074.44;4935077;29;20193;-67
2022/03/07 02:13:35;;;;;;;7.90;7.18;;;1.00;34.00;;;0.88;63.26;102064.41;4918865;29;20243;-68
2022/03/07 02:16:12;;;;;;;7.07;6.38;;;1.00;35.10;;;0.83;63.65;102070.06;4918962;29;20224;-67
2022/03/07 02:18:41;;;;;;;9.38;7.70;;;1.00;35.20;;;0.73;63.37;102068.16;4936108;29;20173;-67
2022/03/07 02:21:34;;;;;;;8.70;7.15;;;0.90;34.70;;;0.63;63.68;102067.16;4935034;29;20189;-67
2022/03/07 02:24:19;;;;;;;8.93;7.72;;;0.80;35.60;;;0.57;63.75;102064.94;4918928;29;20221;-67
2022/03/07 02:26:59;;;;;;;10.68;8.00;;;0.80;36.30;;;0.43;64.44;102063.25;4919076;29;20192;-67
2022/03/07 02:29:30;;;;;;;9.05;7.57;;;0.70;37.50;;;0.23;64.96;102067.31;4918911;29;20187;-68
2022/03/07 02:32:05;;;;;;;12.63;7.05;;;0.60;38.70;;;0.29;65.18;102060.72;4919154;29;20208;-67
2022/03/07 02:34:38;;;;;;;11.80;7.63;;;0.50;40.20;;;0.21;65.35;102057.72;4935006;29;20596;-68
2022/03/07 02:37:09;;;;;;;8.18;6.85;;;0.40;41.60;;;0.14;65.27;102057.31;4935101;29;20185;-66
2022/03/07 02:39:47;;;;;;;9.77;7.28;;;0.40;43.40;;;0.14;65.26;102062.63;4919372;29;20224;-68
2022/03/07 02:42:36;;;;;;;9.32;7.35;;;0.30;43.90;;;0.08;65.55;102056.88;4936221;29;20177;-68
2022/03/07 02:45:06;;;;;;;9.10;8.07;;;0.30;45.70;;;0.05;65.87;102057.91;4936084;29;20223;-67
2022/03/07 02:47:35;;;;;;;8.63;7.72;;;0.30;47.10;;;-0.02;65.81;102065.50;4918876;29;20289;-68
2022/03/07 02:50:06;;;;;;;11.65;8.13;;;0.20;48.20;;;-0.03;66.05;102057.59;4935549;29;20195;-68
2022/03/07 02:52:35;;;;;;;10.00;7.68;;;0.20;50.30;;;-0.06;66.10;102049.84;4934595;29;20576;-68
2022/03/07 02:55:07;;;;;;;14.77;9.02;;;0.10;52.10;;;-0.15;66.87;102056.66;4935670;29;20216;-67
2022/03/07 02:57:36;;;;;;;12.48;7.72;;;0.10;53.50;;;-0.19;66.90;102057.78;4935800;29;20185;-68
2022/03/07 03:00:06;;;;;;;9.30;8.38;;;0.10;55.40;;;-0.24;66.88;102057.25;4935971;29;20236;-67
2022/03/07 03:02:35;;;;;;;10.77;9.70;;;0.10;56.00;;;-0.15;66.45;102056.66;4936034;29;20577;-67
2022/03/07 03:05:04;;;;;;;8.88;8.05;;;0.10;57.80;;;-0.22;66.95;102054.50;4935798;29;20193;-67
2022/03/07 03:07:35;;;;;;;17.92;8.70;;;0.00;59.00;;;-0.28;67.64;102054.91;4935818;29;20189;-67
2022/03/07 03:10:06;;;;;;;9.55;8.55;;;0.00;62.50;;;-0.30;67.44;102055.03;4935672;29;20553;-68
2022/03/07 03:12:36;;;;;;;15.15;10.20;;;-0.10;66.30;;;-0.29;67.39;102053.22;4937273;29;20185;-68
2022/03/07 03:15:06;;;;;;;12.35;10.40;;;0.00;67.90;;;-0.24;67.60;102045.78;4939527;29;20212;-67
2022/03/07 03:17:35;;;;;;;11.80;10.02;;;0.00;70.50;;;-0.39;68.12;102042.34;4939531;29;20173;-67
2022/03/07 03:20:05;;;;;;;12.57;11.23;;;-0.10;69.30;;;-0.64;68.51;102043.16;4939481;29;20271;-68
2022/03/07 03:22:34;;;;;;;14.68;11.68;;;-0.20;71.60;;;-0.48;68.75;102043.81;4922418;29;20243;-67
2022/03/07 03:25:05;;;;;;;14.65;10.50;;;-0.20;78.10;;;-0.64;68.41;102045.81;4940047;29;20267;-67
2022/03/07 03:27:34;;;;;;;12.05;9.40;;;-0.30;78.70;;;-0.80;69.55;102039.78;4939507;29;20597;-67
2022/03/07 03:30:05;;;;;;;11.40;10.07;;;-0.40;83.80;;;-0.75;69.21;102039.50;4939383;29;20658;-67
2022/03/07 03:32:34;;;;;;;11.43;8.40;;;-0.40;90.10;;;-0.77;68.87;102041.38;4939559;29;20197;-68
2022/03/07 03:35:07;;;;;;;8.95;8.10;;;-0.40;89.30;;;-0.84;69.79;102040.97;4939548;29;20219;-68
2022/03/07 03:37:36;;;;;;;11.10;9.63;;;-0.50;91.80;;;-0.97;69.87;102051.50;4940563;29;20192;-67
2022/03/07 03:40:11;;;;;;;11.35;9.20;;;-0.60;93.50;;;-1.08;70.36;102051.38;4941268;29;20199;-68
2022/03/07 03:42:41;;;;;;;14.05;10.32;;;-0.70;94.90;;;-1.02;70.33;102052.78;4939899;29;20534;-68
2022/03/07 03:45:12;;;;;;;15.35;10.48;;;-0.70;97.50;;;-1.09;70.68;102051.47;4938621;29;20180;-68
2022/03/07 03:47:43;;;;;;;11.15;9.00;;;-0.70;98.40;;;-1.25;71.45;102046.28;4940078;29;20181;-68
2022/03/07 03:50:15;;;;;;;11.00;9.52;;;-0.80;99.20;;;-1.14;71.54;102042.94;4922606;29;20213;-67
2022/03/07 03:52:44;;;;;;;12.13;9.45;;;-0.80;99.90;;;-1.13;71.58;102045.50;4939381;29;20552;-66
2022/03/07 03:55:16;;;;;;;11.25;9.88;;;-0.80;99.90;;;-0.93;71.59;102052.19;4939560;29;20205;-67
2022/03/07 03:57:46;;;;;;;13.80;10.40;;;-0.70;99.90;;;-0.65;70.82;102040.59;4939372;29;20192;-67
2022/03/07 04:00:18;;;;;;;14.77;11.85;;;-0.50;99.90;;;-0.59;70.27;102043.69;4939342;29;20185;-68
2022/03/07 04:02:47;;;;;;;12.00;9.68;;;-0.40;99.90;;;-0.68;70.49;102040.81;4938587;29;20193;-68
2022/03/07 04:05:18;;;;;;;11.63;9.65;;;-0.50;99.90;;;-0.74;70.59;102039.41;4939107;29;20193;-68
2022/03/07 04:07:48;;;;;;;12.90;9.45;;;-0.50;99.90;;;-0.91;71.19;102042.28;4938580;29;20208;-67
2022/03/07 04:10:18;;;;;;;14.60;10.02;;;-0.50;99.90;;;-0.93;71.39;102041.56;4938495;29;20174;-67
2022/03/07 04:12:47;;;;;;;13.70;10.68;;;-0.60;99.90;;;-1.01;72.07;102038.53;4938400;29;20232;-68
2022/03/07 04:15:16;;;;;;;17.10;10.75;;;-0.70;99.90;;;-1.11;71.80;102043.59;4938411;29;20255;-67
2022/03/07 04:17:45;;;;;;;14.13;10.40;;;-0.70;99.90;;;-1.18;72.95;102042.31;4938528;29;20658;-67
2022/03/07 04:20:14;;;;;;;15.90;10.77;;;-0.80;99.90;;;-1.04;72.64;102054.69;4937413;29;20614;-67
2022/03/07 04:22:43;;;;;;;11.30;9.77;;;-0.80;99.90;;;-0.99;72.57;102055.25;4939033;29;20184;-67
2022/03/07 04:25:12;;;;;;;18.23;10.27;;;-0.70;99.90;;;-1.02;72.20;102055.44;4939373;29;20189;-68
2022/03/07 04:27:43;;;;;;;13.43;10.43;;;-0.70;99.90;;;-1.04;72.76;102057.34;4939203;29;20657;-68
2022/03/07 04:30:12;;;;;;;11.52;10.25;;;-0.70;99.90;;;-1.07;73.13;102060.22;4921502;29;20235;-68
2022/03/07 04:32:41;;;;;;;15.57;11.20;;;-0.70;99.90;;;-1.01;73.01;102057.97;4938287;29;20193;-67
2022/03/07 04:35:12;;;;;;;12.80;11.02;;;-0.70;99.90;;;-1.05;73.57;102055.63;4938087;29;20220;-67
2022/03/07 04:37:41;;;;;;;20.23;12.73;;;-0.70;99.90;;;-1.00;73.26;102056.19;4938089;29;20173;-67
2022/03/07 04:40:14;;;;;;;14.27;11.38;;;-0.70;99.90;;;-1.09;73.34;102067.41;4936941;29;20573;-67
2022/03/07 04:42:45;;;;;;;15.65;10.70;;;-0.70;99.90;;;-1.13;73.94;102065.91;4938137;29;20182;-67
2022/03/07 04:45:15;;;;;;;16.98;12.35;;;-0.80;99.90;;;-1.18;74.22;102062.69;4937985;29;20181;-68
2022/03/07 04:47:44;;;;;;;15.43;11.20;;;-0.80;99.90;;;-1.15;74.63;102065.13;4937907;29;20533;-68
2022/03/07 04:50:14;;;;;;;15.90;11.63;;;-0.80;99.90;;;-1.17;74.36;102064.41;4937928;29;20185;-68
2022/03/07 04:52:43;;;;;;;15.32;11.45;;;-0.80;99.90;;;-1.24;74.23;102063.06;4937632;29;20231;-67
2022/03/07 04:55:15;;;;;;;15.98;11.20;;;-0.90;99.90;;;-1.04;73.37;102065.31;4921032;29;20189;-68
2022/03/07 04:57:45;;;;;;;13.32;11.05;;;-0.80;99.90;;;-1.11;74.26;102064.84;4937736;29;20212;-67
2022/03/07 05:00:16;;;;;;;18.13;12.32;;;-0.80;99.90;;;-1.04;74.00;102070.63;4937656;29;20232;-68
2022/03/07 05:02:45;;;;;;;12.30;10.70;;;-0.80;99.90;;;-1.01;73.53;102071.28;4937502;29;20248;-67
2022/03/07 05:05:14;;;;;;;13.55;11.23;;;-0.70;99.90;;;-1.01;73.41;102075.72;4937727;29;20192;-68
2022/03/07 05:07:43;;;;;;;14.90;11.38;;;-0.70;99.90;;;-1.10;74.07;102071.00;4937664;29;20224;-68
2022/03/07 05:10:12;;;;;;;15.40;11.18;;;-0.70;99.90;;;-1.14;74.07;102066.84;4938042;29;20251;-68
2022/03/07 05:12:41;;;;;;;14.38;11.00;;;-0.80;99.90;;;-1.27;74.44;102064.13;4937575;29;20268;-67
2022/03/07 05:15:12;;;;;;;15.13;10.80;;;-0.90;99.90;;;-1.28;74.30;102073.06;4937595;29;20204;-66
2022/03/07 05:17:43;;;;;;;14.05;10.95;;;-0.90;99.90;;;-0.90;73.66;102078.56;4937863;29;20200;-67
2022/03/07 05:20:17;;;;;;;17.42;10.45;;;-0.70;99.90;;;-0.93;73.87;102084.94;4938004;29;20189;-66
2022/03/07 05:22:46;;;;;;;15.35;11.35;;;-0.70;99.90;;;-0.79;73.65;102075.19;4920764;29;20228;-68
2022/03/07 05:25:17;;;;;;;13.77;11.68;;;-0.60;99.90;;;-0.75;73.37;102082.88;4938095;29;20247;-67
2022/03/07 05:27:47;;;;;;;15.93;12.60;;;-0.60;99.90;;;-0.74;73.48;102078.41;4937398;29;20192;-68
2022/03/07 05:30:23;;;;;;;13.57;12.18;;;-0.60;99.90;;;-0.74;73.25;102084.59;4938075;29;20192;-68
2022/03/07 05:32:55;;;;;;;15.50;12.18;;;-0.60;99.90;;;-0.68;73.05;102086.84;4937634;29;20177;-68
2022/03/07 05:35:25;;;;;;;19.13;12.30;;;-0.50;99.90;;;-0.70;73.78;102090.53;4920226;29;20195;-67
2022/03/07 05:37:54;;;;;;;21.90;14.00;;;-0.50;99.90;;;-0.60;73.14;102100.47;4941382;29;20204;-67
2022/03/07 05:40:23;;;;;;;13.95;11.00;;;-0.40;99.90;;;-0.67;73.77;102090.34;4940887;29;20179;-67
2022/03/07 05:42:52;;;;;;;15.20;12.60;;;-0.40;99.90;;;-0.62;73.25;102083.75;4939028;29;20197;-67
2022/03/07 05:45:22;;;;;;;15.23;12.13;;;-0.40;99.90;;;-0.57;73.34;102086.13;4937545;29;20193;-67
2022/03/07 05:47:51;;;;;;;15.93;12.43;;;-0.40;99.90;;;-0.59;73.40;102088.03;4937983;29;20555;-67
2022/03/07 05:50:20;;;;;;;13.18;11.70;;;-0.40;99.90;;;-0.56;72.90;102077.19;4936885;29;20181;-67
2022/03/07 05:52:49;;;;;;;14.60;11.40;;;-0.40;99.90;;;-0.61;73.04;102082.81;4937379;29;20181;-67
2022/03/07 05:55:18;;;;;;;14.02;11.90;;;-0.40;99.90;;;-0.72;73.48;102084.47;4937048;29;20200;-68
2022/03/07 05:57:47;;;;;;;17.67;11.00;;;-0.40;99.90;;;-0.65;73.76;102073.34;4936573;29;20197;-68
2022/03/07 06:00:17;;;;;;;13.75;12.02;;;-0.40;99.90;;;-0.79;73.81;102073.41;4936645;29;20225;-67
2022/03/07 06:02:48;;;;;;;13.05;10.15;;;-0.50;99.90;;;-0.85;74.09;102072.94;4936605;29;20184;-68
2022/03/07 06:05:17;;;;;;;18.55;11.85;;;-0.50;99.90;;;-0.75;74.02;102072.25;4936630;29;20212;-67
2022/03/07 06:07:45;;;;;;;17.00;13.13;;;-0.50;99.90;;;-0.75;74.04;102072.25;4936574;29;20526;-69
2022/03/07 06:10:14;;;;;;;14.98;11.23;;;-0.50;99.90;;;-0.63;73.94;102081.22;4936682;29;20744;-66
2022/03/07 06:12:43;;;;;;;14.77;13.15;;;-0.50;99.90;;;-0.54;73.55;102080.63;4936442;29;20189;-67
2022/03/07 06:15:20;;;;;;;15.77;11.10;;;-0.40;99.90;;;-0.48;73.05;102085.50;5078565;23;20230;-71
2022/03/07 06:17:53;;;;;;;13.13;11.73;;;-0.30;99.90;;;-0.45;72.89;102080.84;4975540;28;20775;-72
2022/03/07 06:20:23;;;;;;;12.75;11.48;;;-0.30;99.90;;;-0.41;73.01;102083.28;4976508;28;20220;-72
2022/03/07 06:22:53;;;;;;;14.32;11.32;;;-0.30;99.90;;;-0.37;72.96;102082.13;4984474;28;20530;-71
2022/03/07 06:25:22;;;;;;;16.65;11.93;;;-0.20;99.90;;;-0.30;72.98;102078.13;4990361;28;20188;-70
2022/03/07 06:27:51;;;;;;;13.75;11.88;;;-0.20;99.90;;;-0.25;72.27;102087.50;4989698;28;20263;-71
2022/03/07 06:30:20;;;;;;;12.63;10.60;;;-0.10;99.90;;;-0.25;72.37;102086.63;4985249;28;20219;-73
2022/03/07 06:32:50;;;;;;;13.75;12.35;;;-0.10;99.90;;;-0.17;72.42;102093.16;4976999;28;20557;-71
2022/03/07 06:35:19;;;;;;;17.60;12.98;;;0.00;99.90;;;-0.15;72.58;102103.69;4975153;28;20199;-71
2022/03/07 06:37:49;;;;;;;15.52;13.60;;;0.00;99.90;;;-0.17;72.61;102108.25;4974561;28;20207;-70
2022/03/07 06:40:20;;;;;;;19.05;12.50;;;0.00;99.90;;;-0.06;72.78;102108.38;4974620;28;20211;-71
2022/03/07 06:42:51;;;;;;;15.13;12.82;;;0.00;99.90;;;0.05;72.40;102100.50;4974473;28;20178;-71
2022/03/07 06:45:20;;;;;;;19.33;13.07;;;0.10;99.90;;;0.22;72.34;102099.34;4974302;28;20183;-71
2022/03/07 06:47:51;;;;;;;17.63;12.45;;;0.30;99.90;;;0.21;72.42;102100.31;4974024;28;20183;-70
2022/03/07 06:50:20;;;;;;;17.52;13.23;;;0.30;99.90;;;0.26;72.22;102095.50;4974163;28;20211;-71
2022/03/07 06:52:49;;;;;;;20.23;13.98;;;0.40;99.90;;;0.35;72.27;102103.72;4975011;28;20262;-72
2022/03/07 06:55:18;;;;;;;12.98;11.55;;;0.40;99.90;;;0.40;72.03;102092.75;4973058;28;20191;-71
2022/03/07 06:57:47;;;;;;;19.50;14.23;;;0.50;99.90;;;0.46;72.40;102096.78;4974340;28;20203;-70
2022/03/07 07:00:18;;;;;;;19.55;14.90;;;0.50;99.90;;;0.63;71.87;102091.97;4974652;28;20243;-73
2022/03/07 07:02:47;;;;;;;16.58;13.55;;;0.70;99.90;;;0.54;72.52;102097.09;4975437;28;20203;-73
2022/03/07 07:05:18;;;;;;;21.60;16.80;;;0.70;99.90;;;0.82;71.65;102087.00;4975205;28;20203;-71
2022/03/07 07:07:47;;;;;;;22.98;16.40;;;0.80;99.90;;;0.90;71.64;102090.94;4975052;28;20204;-71
2022/03/07 07:10:19;;;;;;;22.80;16.23;;;0.90;99.90;;;0.86;71.58;102093.00;4974811;28;20299;-71
2022/03/07 07:12:49;;;;;;;17.20;12.90;;;1.00;99.90;;;1.02;71.35;102087.38;4974961;28;20176;-72
2022/03/07 07:15:19;;;;;;;20.08;14.55;;;1.00;99.90;;;1.13;71.03;102093.66;4976499;28;20670;-73
2022/03/07 07:17:48;;;;;;;25.70;16.25;;;1.10;99.90;;;1.30;70.29;102092.44;4980229;28;20601;-72
2022/03/07 07:20:19;;;;;;;22.95;14.77;;;1.30;99.90;;;1.30;70.47;102085.28;4977687;28;20243;-70
2022/03/07 07:22:48;;;;;;;16.90;12.90;;;1.40;99.90;;;1.16;71.06;102082.75;4980062;28;20183;-71
2022/03/07 07:25:17;;;;;;;23.27;15.20;;;1.40;99.90;;;1.38;70.89;102086.50;4976363;28;20180;-72
2022/03/07 07:27:47;;;;;;;18.48;15.80;;;1.40;99.90;;;1.44;70.95;102086.06;4974429;28;20219;-72
2022/03/07 07:30:16;;;;;;;19.73;15.13;;;1.50;99.90;;;1.60;70.55;102089.25;4975034;28;20207;-70
2022/03/07 07:32:44;;;;;;;19.55;14.57;;;1.60;99.90;;;1.75;70.32;102096.97;4973949;28;20198;-72
2022/03/07 07:35:14;;;;;;;27.35;16.73;;;1.70;99.90;;;1.62;70.19;102098.03;4973405;28;20761;-71
2022/03/07 07:37:44;;;;;;;20.33;14.07;;;1.70;99.90;;;1.91;69.93;102104.66;4973657;28;20195;-72
2022/03/07 07:40:13;;;;;;;17.10;15.02;;;1.90;99.90;;;1.90;69.59;102108.31;4973247;28;20278;-71
2022/03/07 07:42:42;;;;;;;20.88;15.38;;;1.90;99.90;;;1.97;69.20;102106.03;4972686;28;20186;-72
2022/03/07 07:45:12;;;;;;;30.42;22.40;;;2.00;99.90;;;1.91;69.56;102106.50;4973101;28;20204;-71
2022/03/07 07:47:41;;;;;;;18.25;14.40;;;2.00;99.90;;;2.22;68.92;102096.97;4972899;28;20234;-72
2022/03/07 07:50:11;;;;;;;17.38;14.50;;;2.20;99.90;;;2.32;68.60;102103.31;4972566;28;20261;-71
2022/03/07 07:52:40;;;;;;;20.90;13.85;;;2.30;99.30;;;2.14;68.88;102100.22;4972695;28;20199;-71
2022/03/07 07:55:12;;;;;;;18.92;15.23;;;2.30;98.40;;;2.18;68.86;102107.88;4974221;28;20678;-71
2022/03/07 07:57:41;;;;;;;17.85;15.27;;;2.30;98.60;;;2.47;68.44;102099.44;4974964;28;20670;-73
2022/03/07 08:00:15;;;;;;;21.98;14.70;;;2.50;98.90;;;2.44;68.51;102113.03;4978775;28;20210;-70
2022/03/07 08:03:04;;;;;;;20.13;14.50;;;2.50;97.50;;;2.46;68.46;102111.09;4978442;28;20654;-71
2022/03/07 08:05:33;;;;;;;20.88;13.93;;;2.50;97.70;;;2.68;68.06;102105.75;4978315;28;20215;-71
2022/03/07 08:08:02;;;;;;;17.70;13.10;;;2.60;97.40;;;2.85;67.45;102113.28;4959399;28;20183;-71
2022/03/07 08:10:33;;;;;;;20.40;13.13;;;2.80;96.30;;;2.98;67.09;102108.66;4976459;28;20558;-73
2022/03/07 08:13:02;;;;;;;18.63;13.55;;;2.90;94.60;;;2.84;67.44;102108.06;4977111;28;20187;-72
2022/03/07 08:15:31;;;;;;;19.73;13.63;;;2.90;92.90;;;2.97;67.12;102108.75;4976888;28;20195;-72
2022/03/07 08:18:00;;;;;;;15.68;13.98;;;2.90;92.70;;;3.08;66.75;102119.47;4976722;28;20286;-71
2022/03/07 08:20:29;;;;;;;26.80;13.20;;;3.10;91.70;;;3.31;65.90;102114.91;4976819;28;20250;-71
2022/03/07 08:22:58;;;;;;;20.58;13.75;;;3.20;90.40;;;3.25;66.15;102110.91;4977284;28;20187;-71
2022/03/07 08:25:27;;;;;;;18.65;13.07;;;3.30;86.10;;;3.32;65.56;102119.28;4977898;28;20557;-72
2022/03/07 08:27:57;;;;;;;17.52;13.23;;;3.30;80.60;;;3.40;65.38;102108.78;4978933;28;20239;-71
2022/03/07 08:30:28;;;;;;;22.27;13.70;;;3.40;78.30;;;3.48;64.96;102107.22;4977074;28;20215;-71
2022/03/07 08:32:57;;;;;;;15.65;12.10;;;3.50;74.70;;;3.36;64.43;102112.69;4978342;28;20175;-72
2022/03/07 08:35:26;;;;;;;22.40;14.07;;;3.50;64.90;;;3.25;64.58;102110.03;4982590;28;20191;-71
2022/03/07 08:37:56;;;;;;;18.52;14.00;;;3.40;63.00;;;3.48;64.58;102101.00;4987510;28;20215;-70
2022/03/07 08:40:25;;;;;;;15.63;12.50;;;3.40;65.30;;;3.66;63.26;102099.47;4988194;28;20218;-70
2022/03/07 08:42:54;;;;;;;19.10;12.45;;;3.60;58.80;;;3.80;62.93;102100.97;4989072;28;20628;-73
2022/03/07 08:45:26;;;;;;;15.88;12.30;;;3.70;55.60;;;4.04;62.35;102098.91;4990501;28;20192;-73
2022/03/07 08:48:15;;;;;;;14.98;11.55;;;3.90;53.20;;;4.08;62.12;102099.47;4989357;28;20188;-71
2022/03/07 08:50:48;;;;;;;14.77;12.20;;;4.10;50.30;;;4.12;62.05;102107.13;4989804;28;20213;-70
2022/03/07 08:53:33;;;;;;;16.02;10.73;;;4.10;48.80;;;4.36;60.58;102101.47;4989897;28;20664;-71
2022/03/07 08:56:06;;;;;;;13.95;10.30;;;4.30;44.20;;;4.34;60.48;102101.63;4961607;28;20524;-73
2022/03/07 08:58:54;;;;;;;16.98;11.48;;;4.30;41.30;;;4.42;60.09;102100.97;4976846;28;20247;-71
2022/03/07 09:01:24;;;;;;;14.43;11.68;;;4.40;39.00;;;4.10;59.78;102097.53;4976555;28;20259;-72
2022/03/07 09:03:53;;;;;;;17.00;11.30;;;4.20;36.00;;;4.10;59.92;102092.19;4958627;28;20183;-72
2022/03/07 09:06:22;;;;;;;12.85;9.27;;;4.10;35.70;;;4.13;59.16;102102.63;4975942;28;20184;-73
2022/03/07 09:08:51;;;;;;;12.73;10.20;;;4.20;33.70;;;4.13;59.18;102091.91;4976101;28;20211;-72
2022/03/07 09:11:23;;;;;;;12.50;9.98;;;4.10;32.80;;;4.07;59.05;102097.78;4975089;28;20180;-70
2022/03/07 09:13:53;;;;;;;10.88;9.77;;;4.20;32.20;;;4.04;59.69;102098.06;4958327;28;20211;-72
2022/03/07 09:16:28;;;;;;;14.05;10.52;;;4.10;32.90;;;4.22;58.97;102102.69;4976200;28;20223;-75
2022/03/07 09:18:57;;;;;;;11.68;9.35;;;4.20;32.00;;;4.32;58.87;102089.34;4975778;28;20219;-73
2022/03/07 09:21:26;;;;;;;12.93;10.95;;;4.30;31.90;;;4.44;59.04;102093.66;4975539;28;20180;-74
2022/03/07 09:23:55;;;;;;;12.65;10.32;;;4.40;32.00;;;4.81;58.23;102105.53;4975495;28;20556;-72
2022/03/07 09:26:24;;;;;;;10.10;8.85;;;4.60;31.90;;;5.01;56.60;102105.59;4974909;28;20202;-71
2022/03/07 09:28:53;;;;;;;12.80;11.70;;;4.80;28.60;;;4.89;56.35;102101.31;4974884;28;20214;-74
2022/03/07 09:31:23;;;;;;;10.07;9.07;;;4.80;26.90;;;4.89;56.35;102106.69;4975267;28;20188;-73
2022/03/07 09:33:53;;;;;;;13.25;9.23;;;4.90;26.00;;;4.94;56.20;102107.13;4975386;28;20203;-73
2022/03/07 09:36:22;;;;;;;11.10;8.50;;;4.90;26.20;;;4.99;55.77;102123.63;4975537;28;20178;-72
2022/03/07 09:38:51;;;;;;;12.40;8.85;;;5.00;25.30;;;4.78;56.34;102113.84;4975657;28;20230;-73
2022/03/07 09:41:21;;;;;;;18.35;10.02;;;4.90;25.10;;;5.03;56.15;102111.69;4975873;28;20263;-73
2022/03/07 09:43:50;;;;;;;12.00;9.23;;;4.90;25.10;;;5.13;55.68;102112.56;4976202;28;20176;-74
2022/03/07 09:46:19;;;;;;;9.60;7.65;;;5.10;24.40;;;5.20;55.25;102105.63;4975253;28;20669;-70
2022/03/07 09:48:48;;;;;;;8.35;7.00;;;5.20;23.50;;;5.17;55.29;102105.91;4975628;28;20191;-74
2022/03/07 09:51:18;;;;;;;10.43;7.80;;;5.10;23.20;;;5.31;55.11;102100.16;4975272;28;20207;-75
2022/03/07 09:53:47;;;;;;;8.63;7.60;;;5.20;23.40;;;5.60;55.02;102109.09;4975127;28;20180;-73
2022/03/07 09:56:16;;;;;;;14.02;8.38;;;5.40;23.30;;;5.18;55.43;102111.13;4974580;28;20211;-74
2022/03/07 09:58:46;;;;;;;8.93;7.15;;;5.30;22.70;;;5.26;55.61;102115.81;4975722;28;20214;-72
2022/03/07 10:01:19;;;;;;;9.32;7.88;;;5.30;23.30;;;4.77;56.96;102112.16;4975075;28;20219;-72
2022/03/07 10:03:53;;;;;;;9.18;6.85;;;5.00;23.80;;;4.92;56.93;102111.78;4974692;28;20308;-74
2022/03/07 10:06:24;;;;;;;11.77;8.52;;;5.00;24.30;;;5.11;56.15;102117.19;4974772;28;20175;-71
2022/03/07 10:08:55;;;;;;;9.30;7.95;;;5.00;24.20;;;5.17;56.13;102111.28;4974798;28;20233;-72
2022/03/07 10:11:25;;;;;;;9.55;7.32;;;5.20;23.60;;;5.31;55.93;102118.94;4974867;28;20589;-74
2022/03/07 10:13:56;;;;;;;12.68;7.03;;;5.30;23.20;;;5.53;55.31;102118.69;4975373;28;20164;-72
2022/03/07 10:16:38;;;;;;;9.88;7.65;;;5.40;22.90;;;5.50;55.07;102123.50;4974477;28;20618;-73
2022/03/07 10:19:11;;;;;;;11.98;7.20;;;5.40;22.40;;;5.53;54.92;102121.38;4974728;28;20758;-72
2022/03/07 10:21:50;;;;;;;9.80;8.77;;;5.50;22.30;;;5.52;55.46;102119.66;4974985;28;20179;-71
2022/03/07 10:24:31;;;;;;;8.90;6.78;;;5.40;22.70;;;5.74;55.04;102121.25;4981986;28;20183;-73
2022/03/07 10:27:00;;;;;;;10.43;7.68;;;5.60;22.40;;;5.73;54.87;102118.69;4989116;28;20176;-73
2022/03/07 10:29:29;;;;;;;11.57;8.65;;;5.70;21.50;;;5.69;54.93;102119.00;4988992;28;20199;-72